createdAt,value
2018-03-26T00:00:16.786Z,38.50
2018-03-26T00:02:47.828Z,39.67
2018-03-26T00:05:17.792Z,41.10
2018-03-26T00:07:48.737Z,38.50
2018-03-26T00:10:18.709Z,41.30
2018-03-26T00:12:49.184Z,45.23
2018-03-26T00:15:19.299Z,44.73
2018-03-26T00:17:49.046Z,42.97
2018-03-26T00:20:22.118Z,42.70
2018-03-26T00:22:51.710Z,45.47
2018-03-26T00:25:25.586Z,43.20
2018-03-26T00:27:56.127Z,45.07
2018-03-26T00:30:26.176Z,49.90
2018-03-26T00:32:56.033Z,51.83
2018-03-26T00:35:35.337Z,50.97
2018-03-26T00:38:07.705Z,55.77
2018-03-26T00:40:38.021Z,49.57
2018-03-26T00:43:07.670Z,55.27
2018-03-26T00:45:38.245Z,48.40
2018-03-26T00:48:08.153Z,54.27
2018-03-26T00:50:38.127Z,49.63
2018-03-26T00:53:08.711Z,50.97
2018-03-26T00:55:38.670Z,53.43
2018-03-26T00:58:09.576Z,52.97
2018-03-26T01:00:40.692Z,51.87
2018-03-26T01:03:11.707Z,54.40
2018-03-26T01:05:43.084Z,53.73
2018-03-26T01:08:13.742Z,54.87
2018-03-26T01:10:45.181Z,53.97
2018-03-26T01:13:15.358Z,55.57
2018-03-26T01:15:49.142Z,51.47
2018-03-26T01:18:19.767Z,52.97
2018-03-26T01:23:35.081Z,55.57
2018-03-26T01:26:05.546Z,56.17
2018-03-26T01:28:35.510Z,56.47
2018-03-26T01:31:06.567Z,55.67
2018-03-26T01:33:36.384Z,58.10
2018-03-26T01:36:06.529Z,53.93
2018-03-26T01:38:36.921Z,54.77
2018-03-26T01:41:07.671Z,54.83
2018-03-26T01:43:37.685Z,55.30
2018-03-26T01:46:08.197Z,61.47
2018-03-26T01:48:38.435Z,57.43
2018-03-26T01:51:08.664Z,59.80
2018-03-26T01:53:38.972Z,56.47
2018-03-26T01:56:12.462Z,60.33
2018-03-26T01:58:42.703Z,60.00
2018-03-26T02:01:14.604Z,57.80
2018-03-26T02:03:45.145Z,59.00
2018-03-26T02:06:16.866Z,56.73
2018-03-26T02:08:47.358Z,54.57
2018-03-26T02:11:19.429Z,58.07
2018-03-26T02:13:49.342Z,50.67
2018-03-26T02:16:21.072Z,53.80
2018-03-26T02:18:52.645Z,51.37
2018-03-26T02:21:24.168Z,50.50
2018-03-26T02:23:54.683Z,48.13
2018-03-26T02:26:25.438Z,43.77
2018-03-26T02:28:56.054Z,52.20
2018-03-26T02:31:27.793Z,50.30
2018-03-26T02:33:57.876Z,50.10
2018-03-26T02:36:30.022Z,48.57
2018-03-26T02:39:00.391Z,53.07
2018-03-26T02:41:32.273Z,48.83
2018-03-26T02:44:02.503Z,46.97
2018-03-26T02:46:34.291Z,51.27
2018-03-26T02:49:04.744Z,53.03
2018-03-26T02:51:37.048Z,45.07
2018-03-26T02:54:08.158Z,48.73
2018-03-26T02:56:40.037Z,48.27
2018-03-26T02:59:12.073Z,48.20
2018-03-26T03:01:42.339Z,46.77
2018-03-26T03:04:12.420Z,48.70
2018-03-26T03:06:44.782Z,47.63
2018-03-26T03:09:15.015Z,47.50
2018-03-26T03:11:54.767Z,47.13
2018-03-26T03:14:24.755Z,45.30
2018-03-26T03:16:54.802Z,46.50
2018-03-26T03:19:26.124Z,47.57
2018-03-26T03:21:55.756Z,48.93
2018-03-26T03:24:26.061Z,50.03
2018-03-26T03:26:56.294Z,48.53
2018-03-26T03:29:27.311Z,47.97
2018-03-26T03:31:57.332Z,52.23
2018-03-26T03:34:27.392Z,52.73
2018-03-26T03:37:04.989Z,50.30
2018-03-26T03:39:34.772Z,47.97
2018-03-26T03:42:04.990Z,50.67
2018-03-26T03:44:35.209Z,52.17
2018-03-26T03:47:08.137Z,54.90
2018-03-26T03:49:39.054Z,48.67
2018-03-26T03:52:09.490Z,54.37
2018-03-26T03:54:39.796Z,50.17
2018-03-26T03:57:13.600Z,56.40
2018-03-26T03:59:43.435Z,51.50
2018-03-26T04:02:15.491Z,57.97
2018-03-26T04:04:45.539Z,54.63
2018-03-26T04:07:17.361Z,51.77
2018-03-26T04:09:47.919Z,60.93
2018-03-26T04:12:19.780Z,53.67
2018-03-26T04:14:50.785Z,55.37
2018-03-26T04:17:21.651Z,58.67
2018-03-26T04:19:52.552Z,59.43
2018-03-26T04:22:25.984Z,57.80
2018-03-26T04:24:57.102Z,61.57
2018-03-26T04:27:27.778Z,57.53
2018-03-26T04:29:57.732Z,60.13
2018-03-26T04:32:29.802Z,61.23
2018-03-26T04:34:59.948Z,64.93
2018-03-26T04:37:31.403Z,59.67
2018-03-26T04:40:01.439Z,62.40
2018-03-26T04:42:38.936Z,63.47
2018-03-26T04:45:09.473Z,62.27
2018-03-26T04:47:39.958Z,65.07
2018-03-26T04:50:10.700Z,63.70
2018-03-26T04:52:41.657Z,63.83
2018-03-26T04:55:11.757Z,69.27
2018-03-26T04:57:42.505Z,68.00
2018-03-26T05:00:12.802Z,70.90
2018-03-26T05:02:45.134Z,69.90
2018-03-26T05:05:15.264Z,69.27
2018-03-26T05:07:48.386Z,70.27
2018-03-26T05:10:19.138Z,67.30
2018-03-26T05:12:49.816Z,67.60
2018-03-26T05:15:20.353Z,72.40
2018-03-26T05:17:53.719Z,71.37
2018-03-26T05:20:24.013Z,66.70
2018-03-26T05:22:55.257Z,84.60
2018-03-26T05:25:25.193Z,83.80
2018-03-26T05:27:57.649Z,75.57
2018-03-26T05:30:27.494Z,72.50
2018-03-26T05:33:00.852Z,73.13
2018-03-26T05:35:31.235Z,72.00
2018-03-26T05:38:02.545Z,75.00
2018-03-26T05:40:32.389Z,72.30
2018-03-26T05:43:05.767Z,76.40
2018-03-26T05:45:35.746Z,73.13
2018-03-26T05:48:09.206Z,68.77
2018-03-26T05:50:38.995Z,68.50
2018-03-26T05:53:10.723Z,70.77
2018-03-26T05:55:41.959Z,83.33
2018-03-26T05:58:13.163Z,78.27
2018-03-26T06:00:42.890Z,72.30
2018-03-26T06:03:14.809Z,67.63
2018-03-26T06:05:44.572Z,67.97
2018-03-26T06:08:18.041Z,67.50
2018-03-26T06:10:48.467Z,71.93
2018-03-26T06:13:19.646Z,68.67
2018-03-26T06:15:49.754Z,64.83
2018-03-26T06:18:23.039Z,66.10
2018-03-26T06:20:53.128Z,73.37
2018-03-26T06:23:30.664Z,64.13
2018-03-26T06:26:00.460Z,60.00
2018-03-26T06:28:30.445Z,65.27
2018-03-26T06:31:00.326Z,68.40
2018-03-26T06:33:31.896Z,63.67
2018-03-26T06:36:02.035Z,70.00
2018-03-26T06:38:35.109Z,63.83
2018-03-26T06:41:04.833Z,60.60
2018-03-26T06:43:36.128Z,65.53
2018-03-26T06:46:05.864Z,68.77
2018-03-26T06:48:43.720Z,63.27
2018-03-26T06:51:13.517Z,64.10
2018-03-26T06:53:43.328Z,70.53
2018-03-26T06:56:13.836Z,64.60
2018-03-26T06:58:44.426Z,62.77
2018-03-26T07:01:14.119Z,62.27
2018-03-26T07:03:47.023Z,62.23
2018-03-26T07:06:16.916Z,70.77
2018-03-26T07:08:53.736Z,65.63
2018-03-26T07:11:23.244Z,64.27
2018-03-26T07:13:52.913Z,67.23
2018-03-26T07:16:22.341Z,61.30
2018-03-26T07:18:59.528Z,61.67
2018-03-26T07:21:29.581Z,61.70
2018-03-26T07:23:59.706Z,61.73
2018-03-26T07:26:29.897Z,60.40
2018-03-26T07:29:01.042Z,65.77
2018-03-26T07:31:30.448Z,70.63
2018-03-26T07:34:07.398Z,65.30
2018-03-26T07:36:36.804Z,60.93
2018-03-26T07:39:07.190Z,62.80
2018-03-26T07:41:36.537Z,67.70
2018-03-26T07:44:10.310Z,64.77
2018-03-26T07:46:39.677Z,61.40
2018-03-26T07:49:13.227Z,66.43
2018-03-26T07:51:43.224Z,61.57
2018-03-26T07:54:14.125Z,67.17
2018-03-26T07:56:44.287Z,58.20
2018-03-26T07:59:16.711Z,58.43
2018-03-26T08:01:46.960Z,65.73
2018-03-26T08:04:19.511Z,61.63
2018-03-26T08:06:51.499Z,63.97
2018-03-26T08:09:21.766Z,58.80
2018-03-26T08:11:51.086Z,63.33
2018-03-26T08:14:22.836Z,63.00
2018-03-26T08:16:52.287Z,59.80
2018-03-26T08:19:28.818Z,59.47
2018-03-26T08:21:59.211Z,61.53
2018-03-26T08:24:28.911Z,54.73
2018-03-26T08:26:58.381Z,54.90
2018-03-26T08:29:35.573Z,56.43
2018-03-26T08:32:04.914Z,50.30
2018-03-26T08:34:35.620Z,49.17
2018-03-26T08:37:05.052Z,48.47
2018-03-26T08:39:34.559Z,55.00
2018-03-26T08:42:04.186Z,48.13
2018-03-26T08:44:40.453Z,46.97
2018-03-26T08:47:10.664Z,43.93
2018-03-26T08:49:40.955Z,42.43
2018-03-26T08:52:10.329Z,46.13
2018-03-26T08:54:43.147Z,45.37
2018-03-26T08:57:12.667Z,42.07
2018-03-26T08:59:45.516Z,41.50
2018-03-26T09:02:15.144Z,36.67
2018-03-26T09:04:47.794Z,32.40
2018-03-26T09:07:17.041Z,31.83
2018-03-26T09:09:50.476Z,30.87
2018-03-26T09:12:20.052Z,31.83
2018-03-26T09:14:52.513Z,25.80
2018-03-26T09:17:21.968Z,27.37
2018-03-26T09:19:58.803Z,22.77
2018-03-26T09:22:29.003Z,25.53
2018-03-26T09:24:59.148Z,18.77
2018-03-26T09:27:29.203Z,21.77
2018-03-26T09:30:02.097Z,22.10
2018-03-26T09:32:31.492Z,16.23
2018-03-26T09:35:04.500Z,22.33
2018-03-26T09:37:34.087Z,23.00
2018-03-26T09:40:07.820Z,19.83
2018-03-26T09:42:37.038Z,17.83
2018-03-26T09:45:12.332Z,16.20
2018-03-26T09:47:42.326Z,18.70
2018-03-26T09:50:15.123Z,16.97
2018-03-26T09:52:44.844Z,13.80
2018-03-26T09:55:16.272Z,10.67
2018-03-26T09:57:45.529Z,11.20
2018-03-26T10:00:18.456Z,14.37
2018-03-26T10:02:47.667Z,10.13
2018-03-26T10:05:25.153Z,11.47
2018-03-26T10:07:54.545Z,9.03
2018-03-26T10:10:24.632Z,8.03
2018-03-26T10:12:53.936Z,5.93
2018-03-26T10:15:25.555Z,8.03
2018-03-26T10:17:55.249Z,8.37
2018-03-26T10:20:28.353Z,8.63
2018-03-26T10:22:58.011Z,6.50
2018-03-26T10:25:28.888Z,5.37
2018-03-26T10:27:58.093Z,6.50
2018-03-26T10:30:35.410Z,7.33
2018-03-26T10:33:04.744Z,6.10
2018-03-26T10:35:34.190Z,8.23
2018-03-26T10:38:03.738Z,7.03
2018-03-26T10:40:36.491Z,8.83
2018-03-26T10:43:07.999Z,7.77
2018-03-26T10:45:38.023Z,9.90
2018-03-26T10:48:08.548Z,8.73
2018-03-26T10:50:42.181Z,8.43
2018-03-26T10:53:28.453Z,7.03
2018-03-26T10:56:14.168Z,7.60
2018-03-26T10:58:46.393Z,11.07
2018-03-26T11:01:16.810Z,11.20
2018-03-26T11:03:48.107Z,10.00
2018-03-26T11:06:18.314Z,8.67
2018-03-26T11:08:50.954Z,7.30
2018-03-26T11:11:20.412Z,11.87
2018-03-26T11:13:54.118Z,7.17
2018-03-26T11:16:24.645Z,8.07
2018-03-26T11:18:56.349Z,8.23
2018-03-26T11:21:25.787Z,10.20
2018-03-26T11:23:59.123Z,7.47
2018-03-26T11:26:28.572Z,10.40
2018-03-26T11:29:05.531Z,11.17
2018-03-26T11:31:35.246Z,12.50
2018-03-26T11:34:09.181Z,9.50
2018-03-26T11:36:39.417Z,10.13
2018-03-26T11:39:18.221Z,11.77
2018-03-26T11:41:48.036Z,12.43
2018-03-26T11:44:17.881Z,10.63
2018-03-26T11:46:47.715Z,9.07
2018-03-26T11:49:19.846Z,12.00
2018-03-26T11:51:50.138Z,7.83
2018-03-26T11:54:20.969Z,7.17
2018-03-26T11:56:52.725Z,10.47
2018-03-26T11:59:22.956Z,13.87
2018-03-26T12:01:52.360Z,9.10
2018-03-26T12:04:30.909Z,12.70
2018-03-26T12:07:00.503Z,13.67
2018-03-26T12:09:29.977Z,13.60
2018-03-26T12:11:59.746Z,10.50
2018-03-26T12:14:32.302Z,11.73
2018-03-26T12:17:01.875Z,13.73
2018-03-26T12:19:36.053Z,10.63
2018-03-26T12:22:05.643Z,9.90
2018-03-26T12:25:10.193Z,12.90
2018-03-26T12:27:48.324Z,9.57
2018-03-26T12:30:19.328Z,8.93
2018-03-26T12:32:48.754Z,10.80
2018-03-26T12:36:00.285Z,8.63
2018-03-26T12:38:30.564Z,7.10
2018-03-26T12:41:00.140Z,9.97
2018-03-26T12:43:29.856Z,9.17
2018-03-26T12:46:46.507Z,11.43
2018-03-26T12:49:18.133Z,7.40
2018-03-26T12:52:05.462Z,13.20
2018-03-26T12:54:35.082Z,12.23
2018-03-26T12:57:13.250Z,11.73
2018-03-26T12:59:43.049Z,13.63
2018-03-26T13:02:28.436Z,14.73
2018-03-26T13:04:59.300Z,11.27
2018-03-26T13:07:28.667Z,12.33
2018-03-26T13:10:02.191Z,12.37
2018-03-26T13:12:31.945Z,16.40
2018-03-26T13:15:05.265Z,12.67
2018-03-26T13:17:34.685Z,13.87
2018-03-26T13:20:08.066Z,14.83
2018-03-26T13:22:37.466Z,15.07
2018-03-26T13:25:14.332Z,13.37
2018-03-26T13:27:43.796Z,11.07
2018-03-26T13:30:14.389Z,16.57
2018-03-26T13:32:44.536Z,14.13
2018-03-26T13:35:16.438Z,12.60
2018-03-26T13:37:46.503Z,14.13
2018-03-26T13:40:18.982Z,15.47
2018-03-26T13:42:48.421Z,12.10
2018-03-26T13:45:21.734Z,10.50
2018-03-26T13:47:51.109Z,10.03
2018-03-26T13:50:25.039Z,12.10
2018-03-26T13:52:54.657Z,8.47
2018-03-26T13:55:26.055Z,12.70
2018-03-26T13:57:55.753Z,11.97
2018-03-26T14:00:28.556Z,11.47
2018-03-26T14:02:58.821Z,9.13
2018-03-26T14:05:30.575Z,6.23
2018-03-26T14:08:00.024Z,8.87
2018-03-26T14:14:51.723Z,5.57
2018-03-26T14:17:35.492Z,5.77
2018-03-26T14:20:05.075Z,5.10
2018-03-26T14:22:41.509Z,9.07
2018-03-26T14:25:11.824Z,5.63
2018-03-26T14:27:41.596Z,5.57
2018-03-26T14:30:12.430Z,4.37
2018-03-26T14:32:43.816Z,6.10
2018-03-26T14:35:45.034Z,3.50
2018-03-26T14:38:15.239Z,3.77
2018-03-26T14:40:48.337Z,4.60
2018-03-26T14:43:19.304Z,3.40
2018-03-26T14:45:51.930Z,1.80
2018-03-26T14:48:21.434Z,5.03
2018-03-26T14:50:54.696Z,3.93
2018-03-26T14:53:24.855Z,4.30
2018-03-26T14:55:56.379Z,6.23
2018-03-26T14:58:26.067Z,5.20
2018-03-26T15:01:00.139Z,4.63
2018-03-26T15:03:29.889Z,3.60
2018-03-26T15:06:02.556Z,1.97
2018-03-26T15:08:32.224Z,4.63
2018-03-26T15:11:04.864Z,3.37
2018-03-26T15:13:34.358Z,1.57
2018-03-26T15:16:07.548Z,4.07
2018-03-26T15:21:13.852Z,3.00
2018-03-26T15:23:43.298Z,5.53
2018-03-26T15:26:13.925Z,4.07
2018-03-26T15:28:43.944Z,5.27
2018-03-26T15:31:16.388Z,3.23
2018-03-26T15:33:45.824Z,3.73
2018-03-26T15:36:17.674Z,4.80
2018-03-26T15:38:47.315Z,5.47
2018-03-26T15:41:19.566Z,3.37
2018-03-26T15:43:49.522Z,4.77
2018-03-26T15:46:22.956Z,5.20
2018-03-26T15:48:52.503Z,5.10
2018-03-26T15:51:24.155Z,5.07
2018-03-26T15:53:54.401Z,7.77
2018-03-26T15:56:27.221Z,5.87
2018-03-26T15:58:56.743Z,6.37
2018-03-26T16:01:30.460Z,4.03
2018-03-26T16:04:00.738Z,7.43
2018-03-26T16:06:30.313Z,5.30
2018-03-26T16:09:01.236Z,6.03
2018-03-26T16:11:33.751Z,5.57
2018-03-26T16:14:04.312Z,4.47
2018-03-26T16:16:37.350Z,4.63
2018-03-26T16:19:06.798Z,5.90
2018-03-26T16:21:37.787Z,6.97
2018-03-26T16:24:08.334Z,9.23
2018-03-26T16:26:41.355Z,6.70
2018-03-26T16:29:11.122Z,5.93
2018-03-26T16:31:43.856Z,6.90
2018-03-26T16:34:14.195Z,6.57
2018-03-26T16:36:47.545Z,5.60
2018-03-26T16:39:17.062Z,9.27
2018-03-26T16:41:50.338Z,7.37
2018-03-26T16:44:20.140Z,9.70
2018-03-26T16:46:52.222Z,13.23
2018-03-26T16:49:21.717Z,11.93
2018-03-26T16:51:56.956Z,11.10
2018-03-26T16:54:26.567Z,8.57
2018-03-26T16:56:59.270Z,8.03
2018-03-26T16:59:28.920Z,6.50
2018-03-26T17:02:01.747Z,6.13
2018-03-26T17:04:31.950Z,6.20
2018-03-26T17:07:04.135Z,6.97
2018-03-26T17:09:33.576Z,10.07
2018-03-26T17:12:05.275Z,8.40
2018-03-26T17:14:34.958Z,8.07
2018-03-26T17:17:11.453Z,9.60
2018-03-26T17:19:41.126Z,4.73
2018-03-26T17:22:12.755Z,5.10
2018-03-26T17:24:43.024Z,6.17
2018-03-26T17:27:15.763Z,6.23
2018-03-26T17:29:46.161Z,5.57
2018-03-26T17:32:16.856Z,6.70
2018-03-26T17:34:46.284Z,6.20
2018-03-26T17:37:19.005Z,9.33
2018-03-26T17:39:49.213Z,8.97
2018-03-26T17:42:22.762Z,4.77
2018-03-26T17:44:52.602Z,5.90
2018-03-26T17:47:23.541Z,5.27
2018-03-26T17:49:53.795Z,9.30
2018-03-26T17:52:24.853Z,7.03
2018-03-26T17:54:55.026Z,5.90
2018-03-26T17:57:28.341Z,6.07
2018-03-26T17:59:59.051Z,9.83
2018-03-26T18:02:30.053Z,7.63
2018-03-26T18:04:59.656Z,7.80
2018-03-26T18:07:31.649Z,9.10
2018-03-26T18:10:01.128Z,9.03
2018-03-26T18:12:37.692Z,6.60
2018-03-26T18:15:07.524Z,9.20
2018-03-26T18:17:36.993Z,11.07
2018-03-26T18:20:06.360Z,6.53
2018-03-26T18:22:39.815Z,10.53
2018-03-26T18:25:09.255Z,10.70
2018-03-26T18:27:46.139Z,9.07
2018-03-26T18:30:15.809Z,8.57
2018-03-26T18:32:45.256Z,9.90
2018-03-26T18:35:15.384Z,9.97
2018-03-26T18:37:47.093Z,9.43
2018-03-26T18:40:16.527Z,12.20
2018-03-26T18:42:53.382Z,7.70
2018-03-26T18:45:22.822Z,9.33
2018-03-26T18:47:53.794Z,7.23
2018-03-26T18:50:23.198Z,8.10
2018-03-26T18:52:56.328Z,9.53
2018-03-26T18:55:26.048Z,10.67
2018-03-26T18:57:59.739Z,9.87
2018-03-26T19:00:29.228Z,14.80
2018-03-26T19:03:01.667Z,10.40
2018-03-26T19:05:31.164Z,11.23
2018-03-26T19:08:08.203Z,9.40
2018-03-26T19:10:37.807Z,12.77
2018-03-26T19:13:08.628Z,7.23
2018-03-26T19:15:37.968Z,10.13
2018-03-26T19:18:15.529Z,10.00
2018-03-26T19:20:44.892Z,8.27
2018-03-26T19:23:15.667Z,15.80
2018-03-26T19:25:45.445Z,10.97
2018-03-26T19:28:17.200Z,11.17
2018-03-26T19:30:46.706Z,10.70
2018-03-26T19:33:20.274Z,7.30
2018-03-26T19:35:50.029Z,9.47
2018-03-26T19:38:23.522Z,6.70
2018-03-26T19:40:54.308Z,8.00
2018-03-26T19:43:23.748Z,7.73
2018-03-26T19:45:53.342Z,5.97
2018-03-26T19:48:26.486Z,6.40
2018-03-26T19:50:55.899Z,5.90
2018-03-26T19:53:28.723Z,8.57
2018-03-26T19:55:58.343Z,5.63
2018-03-26T19:58:29.460Z,6.00
2018-03-26T20:00:58.848Z,8.00
2018-03-26T20:03:33.375Z,9.53
2018-03-26T20:06:02.814Z,9.13
2018-03-26T20:08:35.802Z,8.83
2018-03-26T20:11:05.968Z,11.73
2018-03-26T20:13:37.037Z,7.33
2018-03-26T20:16:06.628Z,6.87
2018-03-26T20:18:39.935Z,6.90
2018-03-26T20:21:09.320Z,6.80
2018-03-26T20:23:41.125Z,10.50
2018-03-26T20:26:10.710Z,10.37
2018-03-26T20:28:48.280Z,7.10
2018-03-26T20:31:17.676Z,7.97
2018-03-26T20:33:47.783Z,7.93
2018-03-26T20:36:18.005Z,10.70
2018-03-26T20:38:50.190Z,12.05
2018-03-26T20:41:19.716Z,8.87
2018-03-26T20:43:53.007Z,9.17
2018-03-26T20:46:22.492Z,8.83
2018-03-26T20:48:59.245Z,8.70
2018-03-26T20:51:29.370Z,10.30
2018-03-26T20:53:59.605Z,9.83
2018-03-26T20:56:29.644Z,8.90
2018-03-26T20:59:02.577Z,11.03
2018-03-26T21:01:32.337Z,9.23
2018-03-26T21:04:04.932Z,9.57
2018-03-26T21:06:34.560Z,9.13
2018-03-26T21:09:07.227Z,8.33
2018-03-26T21:11:37.108Z,10.40
2018-03-26T21:14:10.125Z,13.53
2018-03-26T21:16:39.519Z,9.20
2018-03-26T21:19:16.779Z,8.20
2018-03-26T21:21:46.211Z,8.03
2018-03-26T21:24:15.754Z,10.20
2018-03-26T21:26:46.272Z,10.03
2018-03-26T21:29:19.446Z,9.93
2018-03-26T21:31:48.923Z,9.43
2018-03-26T21:34:19.805Z,7.47
2018-03-26T21:36:50.091Z,9.17
2018-03-26T21:39:22.564Z,7.83
2018-03-26T21:41:53.231Z,8.20
2018-03-26T21:44:24.364Z,7.70
2018-03-26T21:46:54.243Z,7.83
2018-03-26T21:49:26.798Z,8.27
2018-03-26T21:51:57.209Z,8.87
2018-03-26T21:54:29.531Z,11.77
2018-03-26T21:56:59.154Z,8.73
2018-03-26T21:59:32.582Z,8.63
2018-03-26T22:02:03.080Z,9.90
2018-03-26T22:04:34.585Z,15.17
2018-03-26T22:07:04.349Z,11.50
2018-03-26T22:09:37.487Z,8.83
2018-03-26T22:12:07.615Z,9.53
2018-03-26T22:14:39.416Z,9.10
2018-03-26T22:17:09.101Z,10.13
2018-03-26T22:19:41.618Z,15.00
2018-03-26T22:22:12.184Z,9.73
2018-03-26T22:24:43.879Z,9.53
2018-03-26T22:27:13.312Z,9.23
2018-03-26T22:29:47.688Z,12.67
2018-03-26T22:32:17.443Z,11.90
2018-03-26T22:34:51.039Z,10.93
2018-03-26T22:37:20.600Z,11.23
2018-03-26T22:39:53.050Z,9.73
2018-03-26T22:42:22.623Z,13.93
2018-03-26T22:45:00.066Z,14.07
2018-03-26T22:47:30.748Z,12.03
2018-03-26T22:50:00.381Z,12.70
2018-03-26T22:52:39.310Z,12.03
2018-03-26T22:55:15.895Z,12.93
2018-03-26T22:57:45.555Z,11.13
2018-03-26T23:00:15.224Z,13.77
2018-03-26T23:02:45.167Z,12.87
2018-03-26T23:05:15.258Z,12.00
2018-03-26T23:07:46.572Z,10.87
2018-03-26T23:10:17.557Z,15.40
2018-03-26T23:12:47.829Z,10.20
2018-03-26T23:15:26.842Z,11.93
2018-03-26T23:17:56.658Z,14.53
2018-03-26T23:20:34.373Z,17.60
2018-03-26T23:23:05.970Z,14.63
2018-03-26T23:25:46.040Z,14.93
2018-03-26T23:28:19.019Z,14.23
2018-03-26T23:30:49.360Z,13.43
2018-03-26T23:33:24.744Z,15.73
2018-03-26T23:35:59.687Z,13.43
2018-03-26T23:38:40.522Z,13.97
2018-03-26T23:41:10.081Z,14.10
2018-03-26T23:43:39.718Z,13.30
2018-03-26T23:46:09.690Z,12.03
2018-03-26T23:48:39.122Z,14.33
2018-03-26T23:51:08.715Z,14.03
2018-03-26T23:53:39.292Z,15.03
2018-03-26T23:56:08.752Z,14.77
2018-03-26T23:58:39.081Z,12.90
